EmailTwitter


Observations de surface / Québec / CYUL (71627)

Régions: Québec | Canada | États-Unis | Europe | France | UK | Ailleurs
Station
Affichage
Infos & localisation pour CYUL (71627) | Aide pour décoder les METARs

Observations prises le 2019-03-25 à 01H43 UTC à MONTREAL INTL A, QB (CYUL)

Etat du ciel: partiellement nuageux.

Température: -1.0 Celsius

Point de rosée: -3.0 Celsius

Humidité relative: 86%

Facteur vent: -6.

Vents: Sud-ouest à 19 km/h ou 10 noeuds.

Pression au niveau moyen de la mer: 101.66 kilopascals.

Calage altimétrique: 101.62 kilopascals ou 30.01 pouces de mercure.

Visibilité horizontale: 15.00 milles terrestres ou 24.00 kilomètres.

Hauteur du plafond: 1463 mètres ( 4800 pieds ).

Observation METAR:

CYUL 250143Z 24010KT 15SM FEW012 BKN048 BKN067 M01/M03 A3001 RMK SF1SC5AC2 SF

TR SLP166=